Time,TemperatureF,DewpointF,PressureIn,WindDirection,WindDirectionDegrees,WindSpeedMPH,WindSpeedGustMPH,Humidity,HourlyPrecipIn,Conditions,Clouds,dailyrainin,SolarRadiationWatts/m^2,SoftwareType,DateUTC
2013-06-17 00:12:00,55.0,45.0,-100.00,North,356,6.0,11.0,70,0.00,,,0.00,0.000000,,2013-06-17 07:12:00,
2013-06-17 00:22:00,55.0,45.0,-100.00,North,356,6.0,11.0,70,0.00,,,0.00,0.000000,,2013-06-17 07:22:00,
2013-06-17 00:33:00,55.0,45.0,-100.00,North,356,6.0,11.0,70,0.00,,,0.00,0.000000,,2013-06-17 07:33:00,
2013-06-17 00:42:00,55.0,45.0,-100.00,North,356,6.0,11.0,70,0.00,,,0.00,0.000000,,2013-06-17 07:42:00,
2013-06-17 00:50:00,52.0,45.0,-100.00,NNW,327,0.0,8.0,77,0.00,,,0.00,0.000000,,2013-06-17 07:50:00,
2013-06-17 01:22:00,52.0,45.0,-100.00,NNW,327,0.0,8.0,77,0.00,,,0.00,0.000000,,2013-06-17 08:22:00,
2013-06-17 01:33:00,52.0,45.0,-100.00,NNW,327,0.0,8.0,77,0.00,,,0.00,0.000000,,2013-06-17 08:33:00,
2013-06-17 01:43:00,52.0,45.0,-100.00,NNW,327,0.0,8.0,77,0.00,,,0.00,0.000000,,2013-06-17 08:43:00,
2013-06-17 01:50:00,52.0,47.0,-100.00,North,10,4.0,8.0,83,0.00,,,0.00,0.000000,,2013-06-17 08:50:00,
2013-06-17 02:22:00,52.0,47.0,-100.00,North,10,4.0,8.0,83,0.00,,,0.00,0.000000,,2013-06-17 09:22:00,
2013-06-17 02:34:00,52.0,47.0,-100.00,North,10,4.0,8.0,83,0.00,,,0.00,0.000000,,2013-06-17 09:34:00,
2013-06-17 02:43:00,52.0,47.0,-100.00,North,10,4.0,8.0,83,0.00,,,0.00,0.000000,,2013-06-17 09:43:00,
2013-06-17 02:50:00,49.0,45.0,-100.00,North,10,0.0,5.0,86,0.00,,,0.00,0.000000,,2013-06-17 09:50:00,
2013-06-17 03:12:00,49.0,45.0,-100.00,North,10,0.0,5.0,86,0.00,,,0.00,0.000000,,2013-06-17 10:12:00,
2013-06-17 03:22:00,49.0,45.0,-100.00,North,10,0.0,5.0,86,0.00,,,0.00,0.000000,,2013-06-17 10:22:00,
2013-06-17 03:33:00,49.0,45.0,-100.00,North,10,0.0,5.0,86,0.00,,,0.00,0.000000,,2013-06-17 10:33:00,
2013-06-17 03:42:00,49.0,45.0,-100.00,North,10,0.0,5.0,86,0.00,,,0.00,0.000000,,2013-06-17 10:42:00,
2013-06-17 03:50:00,49.0,46.0,-100.00,NNW,343,3.0,4.0,90,0.00,,,0.00,0.000000,,2013-06-17 10:50:00,
2013-06-17 04:23:00,49.0,46.0,-100.00,NNW,343,3.0,4.0,90,0.00,,,0.00,0.000000,,2013-06-17 11:23:00,
2013-06-17 04:33:00,49.0,46.0,-100.00,NNW,343,3.0,4.0,90,0.00,,,0.00,0.000000,,2013-06-17 11:33:00,
2013-06-17 04:43:00,49.0,46.0,-100.00,NNW,343,3.0,4.0,90,0.00,,,0.00,0.000000,,2013-06-17 11:43:00,
2013-06-17 04:50:00,50.0,47.0,-100.00,NNW,335,6.0,9.0,91,0.00,,,0.00,0.000000,,2013-06-17 11:50:00,
2013-06-17 05:22:00,50.0,47.0,-100.00,NNW,335,6.0,9.0,91,0.00,,,0.00,0.000000,,2013-06-17 12:22:00,
2013-06-17 05:33:00,50.0,47.0,-100.00,NNW,335,6.0,9.0,91,0.00,,,0.00,0.000000,,2013-06-17 12:33:00,
2013-06-17 05:43:00,50.0,47.0,-100.00,NNW,335,6.0,9.0,91,0.00,,,0.00,0.000000,,2013-06-17 12:43:00,
2013-06-17 05:50:00,50.0,47.0,-100.00,NW,314,5.0,9.0,91,0.00,,,0.00,1.000000,,2013-06-17 12:50:00,
2013-06-17 06:22:00,50.0,47.0,-100.00,NW,314,5.0,9.0,91,0.00,,,0.00,1.000000,,2013-06-17 13:22:00,
2013-06-17 06:32:00,50.0,47.0,-100.00,NW,314,5.0,9.0,91,0.00,,,0.00,1.000000,,2013-06-17 13:32:00,
2013-06-17 06:43:00,50.0,47.0,-100.00,NW,314,5.0,9.0,91,0.00,,,0.00,1.000000,,2013-06-17 13:43:00,
2013-06-17 06:50:00,50.0,47.0,-100.00,NW,310,4.0,8.0,90,0.00,,,0.00,14.000000,,2013-06-17 13:50:00,
2013-06-17 07:11:00,50.0,47.0,-100.00,NW,310,4.0,8.0,90,0.00,,,0.00,14.000000,,2013-06-17 14:11:00,
2013-06-17 07:22:00,50.0,47.0,-100.00,NW,310,4.0,8.0,90,0.00,,,0.00,14.000000,,2013-06-17 14:22:00,
2013-06-17 07:34:00,50.0,47.0,-100.00,NW,310,4.0,8.0,90,0.00,,,0.00,14.000000,,2013-06-17 14:34:00,
2013-06-17 07:43:00,50.0,47.0,-100.00,NW,310,4.0,8.0,90,0.00,,,0.00,14.000000,,2013-06-17 14:43:00,
2013-06-17 07:50:00,51.0,48.0,-100.00,WNW,285,4.0,8.0,88,0.00,,,0.00,68.000000,,2013-06-17 14:50:00,
2013-06-17 08:22:00,51.0,48.0,-100.00,WNW,285,4.0,8.0,88,0.00,,,0.00,68.000000,,2013-06-17 15:22:00,
2013-06-17 08:33:00,51.0,48.0,-100.00,WNW,285,4.0,8.0,88,0.00,,,0.00,68.000000,,2013-06-17 15:33:00,
2013-06-17 08:43:00,51.0,48.0,-100.00,WNW,285,4.0,8.0,88,0.00,,,0.00,68.000000,,2013-06-17 15:43:00,
2013-06-17 08:50:00,57.0,50.0,-100.00,NW,319,4.0,8.0,78,0.00,,,0.00,349.000000,,2013-06-17 15:50:00,
2013-06-17 09:11:00,57.0,50.0,-100.00,NW,319,4.0,8.0,78,0.00,,,0.00,349.000000,,2013-06-17 16:11:00,
2013-06-17 09:22:00,57.0,50.0,-100.00,NW,319,4.0,8.0,78,0.00,,,0.00,349.000000,,2013-06-17 16:22:00,
2013-06-17 09:33:00,57.0,50.0,-100.00,NW,319,4.0,8.0,78,0.00,,,0.00,349.000000,,2013-06-17 16:33:00,
2013-06-17 09:43:00,57.0,50.0,-100.00,NW,319,4.0,8.0,78,0.00,,,0.00,349.000000,,2013-06-17 16:43:00,
2013-06-17 09:50:00,62.0,51.0,-100.00,NW,324,6.0,14.0,66,0.00,,,0.00,578.000000,,2013-06-17 16:50:00,
2013-06-17 10:22:00,62.0,51.0,-100.00,NW,324,6.0,14.0,66,0.00,,,0.00,578.000000,,2013-06-17 17:22:00,
2013-06-17 10:33:00,62.0,51.0,-100.00,NW,324,6.0,14.0,66,0.00,,,0.00,578.000000,,2013-06-17 17:33:00,
2013-06-17 10:43:00,62.0,51.0,-100.00,NW,324,6.0,14.0,66,0.00,,,0.00,578.000000,,2013-06-17 17:43:00,
2013-06-17 10:50:00,67.0,49.0,-100.00,WNW,302,11.0,16.0,53,0.00,,,-99.99,738.000000,,2013-06-17 17:50:00,
2013-06-17 11:23:00,67.0,49.0,-100.00,WNW,302,11.0,16.0,53,0.00,,,-99.99,738.000000,,2013-06-17 18:23:00,
2013-06-17 11:33:00,67.0,49.0,-100.00,WNW,302,11.0,16.0,53,0.00,,,-99.99,738.000000,,2013-06-17 18:33:00,
2013-06-17 11:42:00,67.0,49.0,-100.00,WNW,302,11.0,16.0,53,0.00,,,-99.99,738.000000,,2013-06-17 18:42:00,
2013-06-17 11:50:00,69.0,50.0,-100.00,NW,326,13.0,19.0,51,0.00,,,0.00,859.000000,,2013-06-17 18:50:00,
2013-06-17 12:22:00,69.0,50.0,-100.00,NW,326,13.0,19.0,51,0.00,,,0.00,859.000000,,2013-06-17 19:22:00,
2013-06-17 12:33:00,69.0,50.0,-100.00,NW,326,13.0,19.0,51,0.00,,,0.00,859.000000,,2013-06-17 19:33:00,
2013-06-17 12:43:00,69.0,50.0,-100.00,NW,326,13.0,19.0,51,0.00,,,0.00,859.000000,,2013-06-17 19:43:00,
2013-06-17 12:50:00,71.0,51.0,-100.00,NNW,327,16.0,21.0,50,0.00,,,0.00,929.000000,,2013-06-17 19:50:00,
2013-06-17 13:22:00,71.0,51.0,-100.00,NNW,327,16.0,21.0,50,0.00,,,0.00,929.000000,,2013-06-17 20:22:00,
2013-06-17 13:34:00,71.0,51.0,-100.00,NNW,327,16.0,21.0,50,0.00,,,0.00,929.000000,,2013-06-17 20:34:00,
2013-06-17 13:43:00,71.0,51.0,-100.00,NNW,327,16.0,21.0,50,0.00,,,0.00,929.000000,,2013-06-17 20:43:00,
2013-06-17 14:50:00,73.0,52.0,-100.00,NW,319,15.0,25.0,47,-99.99,,,0.00,920.000000,,2013-06-17 21:50:00,
2013-06-17 15:50:00,72.0,50.0,-100.00,NW,324,17.0,24.0,46,0.00,,,0.00,845.000000,,2013-06-17 22:50:00,
2013-06-17 16:22:00,72.0,50.0,-100.00,NW,324,17.0,24.0,46,0.00,,,0.00,845.000000,,2013-06-17 23:22:00,
2013-06-17 16:32:00,72.0,50.0,-100.00,NW,324,17.0,24.0,46,0.00,,,0.00,845.000000,,2013-06-17 23:32:00,
2013-06-17 16:42:00,72.0,50.0,-100.00,NW,324,17.0,24.0,46,0.00,,,0.00,845.000000,,2013-06-17 23:42:00,
2013-06-17 16:50:00,69.0,48.0,-100.00,NW,317,16.0,25.0,48,0.00,,,0.00,720.000000,,2013-06-17 23:50:00,
2013-06-17 17:22:00,69.0,48.0,-100.00,NW,317,16.0,25.0,48,0.00,,,0.00,720.000000,,2013-06-18 00:22:00,
2013-06-17 17:32:00,69.0,48.0,-100.00,NW,317,16.0,25.0,48,0.00,,,0.00,720.000000,,2013-06-18 00:32:00,
2013-06-17 17:43:00,69.0,48.0,-100.00,NW,317,16.0,25.0,48,0.00,,,0.00,720.000000,,2013-06-18 00:43:00,
2013-06-17 17:50:00,67.0,51.0,-100.00,NW,319,16.0,26.0,56,0.00,,,0.00,559.000000,,2013-06-18 00:50:00,
2013-06-17 18:23:00,67.0,51.0,-100.00,NW,319,16.0,26.0,56,0.00,,,0.00,559.000000,,2013-06-18 01:23:00,
2013-06-17 18:34:00,67.0,51.0,-100.00,NW,319,16.0,26.0,56,0.00,,,0.00,559.000000,,2013-06-18 01:34:00,
2013-06-17 18:44:00,67.0,51.0,-100.00,NW,319,16.0,26.0,56,0.00,,,0.00,559.000000,,2013-06-18 01:44:00,
2013-06-17 18:50:00,63.0,51.0,-100.00,NW,309,13.0,21.0,65,0.00,,,0.00,381.000000,,2013-06-18 01:50:00,
2013-06-17 19:22:00,63.0,51.0,-100.00,NW,309,13.0,21.0,65,0.00,,,0.00,381.000000,,2013-06-18 02:22:00,
2013-06-17 19:34:00,63.0,51.0,-100.00,NW,309,13.0,21.0,65,0.00,,,0.00,381.000000,,2013-06-18 02:34:00,
2013-06-17 19:43:00,63.0,51.0,-100.00,NW,309,13.0,21.0,65,0.00,,,0.00,381.000000,,2013-06-18 02:43:00,
2013-06-17 19:50:00,61.0,51.0,-100.00,WNW,295,10.0,20.0,70,0.00,,,0.00,200.000000,,2013-06-18 02:50:00,
2013-06-17 20:23:00,61.0,51.0,-100.00,WNW,295,10.0,20.0,70,0.00,,,0.00,200.000000,,2013-06-18 03:23:00,
2013-06-17 20:34:00,61.0,51.0,-100.00,WNW,295,10.0,20.0,70,0.00,,,0.00,200.000000,,2013-06-18 03:34:00,
2013-06-17 20:42:00,61.0,51.0,-100.00,WNW,295,10.0,20.0,70,0.00,,,0.00,200.000000,,2013-06-18 03:42:00,
2013-06-17 20:50:00,59.0,51.0,-100.00,WNW,300,9.0,15.0,75,0.00,,,0.00,27.000000,,2013-06-18 03:50:00,
2013-06-17 21:12:00,59.0,51.0,-100.00,WNW,300,9.0,15.0,75,0.00,,,0.00,27.000000,,2013-06-18 04:12:00,
2013-06-17 21:22:00,59.0,51.0,-100.00,WNW,300,9.0,15.0,75,0.00,,,0.00,27.000000,,2013-06-18 04:22:00,
2013-06-17 21:34:00,59.0,51.0,-100.00,WNW,300,9.0,15.0,75,0.00,,,0.00,27.000000,,2013-06-18 04:34:00,
2013-06-17 21:43:00,59.0,51.0,-100.00,WNW,300,9.0,15.0,75,0.00,,,0.00,27.000000,,2013-06-18 04:43:00,
2013-06-17 21:50:00,58.0,51.0,-100.00,WNW,302,8.0,14.0,78,0.00,,,0.00,1.000000,,2013-06-18 04:50:00,
2013-06-17 22:22:00,58.0,51.0,-100.00,WNW,302,8.0,14.0,78,0.00,,,0.00,1.000000,,2013-06-18 05:22:00,
2013-06-17 22:33:00,58.0,51.0,-100.00,WNW,302,8.0,14.0,78,0.00,,,0.00,1.000000,,2013-06-18 05:33:00,
2013-06-17 22:43:00,58.0,51.0,-100.00,WNW,302,8.0,14.0,78,0.00,,,0.00,1.000000,,2013-06-18 05:43:00,
2013-06-17 22:50:00,57.0,51.0,-100.00,NW,304,9.0,15.0,79,0.00,,,0.00,0.000000,,2013-06-18 05:50:00,
2013-06-17 23:23:00,57.0,51.0,-100.00,NW,304,9.0,15.0,79,0.00,,,0.00,0.000000,,2013-06-18 06:23:00,
2013-06-17 23:32:00,57.0,51.0,-100.00,NW,304,9.0,15.0,79,0.00,,,0.00,0.000000,,2013-06-18 06:32:00,
2013-06-17 23:43:00,57.0,51.0,-100.00,NW,304,9.0,15.0,79,0.00,,,0.00,0.000000,,2013-06-18 06:43:00,
2013-06-17 23:50:00,56.0,51.0,-100.00,NW,311,9.0,14.0,83,0.00,,,0.00,0.000000,,2013-06-18 06:50:00,